Terminal Aerodrome Forecast
Issued by NWS

Current Version | Previous Version | Graphics & Text | Print | Product List | Glossary On
Versions: 1 2 3 4 5 6 7 8 9 10 11 12 13 14 15 16 17 18 19 20 21 22 23 24 25
404
FTUS41 KILN 140252 AAB
TAFLUK
TAF AMD
KLUK 140252Z 1403/1424 22016G36KT P6SM OVC050
     FM140900 31009G18KT P6SM BKN025
     FM141200 32008KT P6SM BKN050
     FM141900 35004KT P6SM SCT250=

USA.gov is the U.S. government's official web portal to all federal, state and local government web resources and services.